Aérodrome :
LOGIN :

S'inscrire | Disclaimer

   EN    FR    IT 

 










Légende :    VFR   VFR Marginal   IFR   IFR Intensif   IFR Très Intensif
Visi : 
Plafond : 
>= 8 km
>= 3000ft
5 à 8 km
1000 à 3000 ft
1500m à 5 km
500 à 1000 ft
800 à 1500m
200 à 500 ft
< 800m
< 200 ft
Symboles :   Orages  Brouillard  Fortes neiges  Fortes précipitations  Vent > 20 kt
SIGMETs :   Divers  Orages  Givrage  Turbulence  Onde Orograph.  Cendres Volcan.







- Altitude de l'aérodrome : 302 ft
- Code IATA : MAH


LEMH - Menorca

DERNIER METAR :
  • 151230Z 01013KT 330V040 9999 FEW040 28/16 Q1018

METARs EXPIRÉS :
  • 151200Z 36015KT 310V050 9999 FEW040 28/15 Q1018
  • 151130Z 01016KT 340V050 9999 FEW040 28/16 Q1018
  • 151100Z 01016G26KT 340V040 9999 FEW040 29/15 Q1018
  • 151030Z 02018KT 350V050 9999 FEW040 28/15 Q1018
  • 151000Z 01017G27KT 320V060 9999 FEW030 28/15 Q1018

TAF TAF LEMH
Valide du 15 à 09h jusqu'au 16 à 09h UTC


150800Z 1509/1609 36010KT 9999 FEW025 TX30/1512Z TN21/1605Z
TEMPO 1509/1516 36018G28KT
Pas de NOTAMs connus pour ce terrain.
1 SIGMET publié pour la FIR Barcelona (LECB) :
 
Orages noyés dans la masse
LECB SIGMET 1 VALID 151038/151300 LEVA
LECB BARCELONA FIR/UIR EMBD TS OBS AT 1038Z WI N39 W00007 - N3808 W00028 - N3757 E00016 - N3856 E00038 - N39 W00007 TOP FL380 STNR NC=



MET'MAP, la Météo Aéronautique d'un coup d'oeil ! - Copyright ORBIFLY Décembre 2007 - Disclaimer

ORBIFLY MET'MAP TEAM :

Programmation & Développement : Alexandra Zaïnal
Conception & Développement : Baudouin d'Aumeries
Co-Programmation & Développement : Marc-Olivier Méhu
Soutien technique & logistique : Manuel Goepfert

Contact : metmap@orbifly.com




SOURCES & CREDITS :

   NOAA